Latest Weather Observations for Bendigo

IDV60801

Issued at 4:05 pm EDT Thursday 27 November 2014 (issued every 30 minutes, with the page automatically refreshed every 10 minutes)

About weather observations | Map of weather stations | Latest weather observations for VIC | Other Formats
Station Details ID: 081123 Name: BENDIGO AIRPORT Lat: -36.74 Lon: 144.33 Height: 208.0 m
Data from the previous 72 hours. | See also: Recent months at Bendigo
Date/Time
EDT
Temp
°C
App
Temp
°C
Dew
Point
Rel
Hum
%
Delta-T
°C
Wind Press
QNH
hPa
Press
MSL
hPa
Rain
since 9 am
mm
Dir
 
Spd
km/h
Gust
km/h
Spd
kts
Gust
kts
27/04:00pm 25.5 20.5 3.5 24 10.9 SE 19 32 10 17 1020.4 1020.0 0.0
27/03:30pm 24.5 19.2 2.0 23 10.8 SSE 19 30 10 16 1020.7 1020.4 0.0
27/03:00pm 24.6 19.5 3.3 25 10.5 SSE 19 30 10 16 1020.9 1020.6 0.0
27/02:30pm 24.4 19.3 0.7 21 11.1 S 17 32 9 17 1021.3 1021.0 0.0
27/02:00pm 23.8 18.9 4.2 28 9.7 SE 19 30 10 16 1021.7 1021.4 0.0
27/01:30pm 23.9 19.6 3.2 26 10.1 SSE 15 28 8 15 1021.9 1021.5 0.0
27/01:00pm 22.9 18.3 3.9 29 9.3 ESE 17 24 9 13 1022.2 1021.8 0.0
27/12:30pm 22.3 17.0 2.9 28 9.3 ESE 20 24 11 13 1022.4 1022.0 0.0
27/12:00pm 21.5 16.4 4.1 32 8.5 SSE 20 32 11 17 1022.7 1022.3 0.0
27/11:30am 20.2 16.1 4.3 35 7.7 SSE 15 26 8 14 1022.9 1022.5 0.0
27/11:00am 19.1 13.6 1.6 31 8.0 SE 20 32 11 17 1023.1 1022.7 0.0
27/10:30am 18.2 13.2 4.7 41 6.5 SE 20 35 11 19 1023.2 1022.8 0.0
27/10:00am 17.2 12.2 4.5 43 6.0 SSE 20 33 11 18 1023.4 1023.0 0.0
27/09:30am 15.8 10.8 6.3 53 4.7 SE 22 32 12 17 1023.4 1023.0 0.0
27/09:00am 14.5 9.0 6.1 57 4.1 S 24 33 13 18 1023.6 1023.2 0.0
27/08:30am 13.7 8.2 6.1 60 3.7 SE 24 37 13 20 1023.5 1023.1 0.0
27/08:00am 12.3 6.8 5.9 65 3.0 SSE 24 35 13 19 1023.3 1022.9 0.0
27/07:30am 11.5 6.9 6.4 71 2.4 S 20 32 11 17 1023.0 1022.6 0.0
27/07:00am 10.5 7.5 6.1 74 2.1 S 11 17 6 9 1023.0 1022.6 0.0
27/06:30am 9.6 6.2 5.8 77 1.8 S 13 20 7 11 1022.9 1022.5 0.0
27/06:00am 9.0 5.2 5.6 79 1.6 S 15 19 8 10 1022.6 1022.2 0.0
27/05:30am 8.8 6.1 5.4 79 1.6 S 9 15 5 8 1022.6 1022.2 0.0
27/05:00am 9.0 6.3 5.4 78 1.6 SSW 9 13 5 7 1022.4 1022.0 0.0
27/04:30am 9.2 6.5 5.6 78 1.7 SSW 9 11 5 6 1022.2 1021.8 0.0
27/04:00am 10.0 6.6 5.8 75 1.9 S 13 19 7 10 1022.1 1021.7 0.0
27/03:30am 10.6 6.5 6.0 73 2.2 S 17 24 9 13 1021.9 1021.5 0.0
27/03:00am 11.0 7.0 6.7 75 2.0 S 17 26 9 14 1022.1 1021.7 0.0
27/02:30am 11.3 7.4 7.0 75 2.1 S 17 30 9 16 1022.3 1021.9 0.0
27/02:00am 11.0 8.0 7.5 79 1.7 S 13 19 7 10 1022.6 1022.2 0.0
27/01:30am 11.0 7.7 7.9 81 1.5 S 15 19 8 10 1022.8 1022.4 0.0
27/01:00am 11.1 7.1 8.3 83 1.4 SSE 19 24 10 13 1023.0 1022.6 0.0
27/12:30am 11.4 7.9 8.8 84 1.3 SSE 17 24 9 13 1023.2 1022.8 0.0
27/12:00am 11.6 8.9 8.8 83 1.4 SSE 13 17 7 9 1023.4 1023.0 0.0
 
Date/Time
EDT
Temp
°C
App
Temp
°C
Dew
Point
Rel
Hum
%
Delta-T
°C
Wind Press
QNH
hPa
Press
MSL
hPa
Rain
since 9 am
mm
Dir
 
Spd
km/h
Gust
km/h
Spd
kts
Gust
kts
26/11:30pm 12.3 8.9 9.0 80 1.7 SSE 17 26 9 14 1023.2 1022.8 0.0
26/11:00pm 12.6 9.6 9.4 81 1.6 SSE 15 24 8 13 1023.2 1022.8 0.0
26/10:30pm 13.1 10.2 9.5 79 1.9 SE 15 20 8 11 1023.1 1022.7 0.0
26/10:00pm 13.7 9.5 9.6 76 2.1 SE 22 35 12 19 1022.9 1022.5 0.0
26/09:30pm 14.8 11.1 10.2 74 2.4 SE 20 32 11 17 1022.3 1021.9 0.0
26/09:00pm 15.3 12.2 10.3 72 2.6 SSE 17 24 9 13 1021.9 1021.5 0.0
26/08:30pm 16.9 12.2 10.5 66 3.4 SSE 26 35 14 19 1021.4 1021.1 0.0
26/08:00pm 18.0 14.3 10.1 60 4.2 S 20 28 11 15 1020.9 1020.6 0.0
26/07:30pm 20.0 16.1 9.6 51 5.6 S 20 28 11 15 1020.5 1020.2 0.0
26/07:00pm 20.4 15.9 8.7 47 6.2 S 22 35 12 19 1020.1 1019.7 0.0
26/06:30pm 20.8 16.4 9.1 47 6.3 S 22 32 12 17 1019.8 1019.4 0.0
26/06:00pm 21.8 17.1 9.3 45 6.7 SSW 24 35 13 19 1019.8 1019.4 0.0
26/05:30pm 21.0 16.1 8.3 44 6.7 SSW 24 39 13 21 1019.6 1019.2 0.0
26/05:00pm 22.5 18.2 9.3 43 7.1 SSW 22 33 12 18 1019.5 1019.1 0.0
26/04:30pm 22.3 17.5 8.8 42 7.3 SW 24 35 13 19 1019.6 1019.2 0.0
26/04:00pm 23.3 18.7 8.2 38 8.0 SSW 22 37 12 20 1019.5 1019.1 0.0
26/03:30pm 21.7 18.2 8.6 43 7.0 SSW 17 24 9 13 1019.6 1019.2 0.0
26/03:00pm 21.6 18.0 6.7 38 7.6 SW 15 28 8 15 1019.7 1019.3 0.0
26/02:30pm 22.7 19.6 7.3 37 8.1 SW 13 24 7 13 1020.0 1019.6 0.0
26/02:00pm 22.1 18.3 7.5 39 7.6 W 17 26 9 14 1020.3 1019.9 0.0
26/01:30pm 22.4 18.1 7.8 39 7.7 SW 20 30 11 16 1020.6 1020.3 0.0
26/01:00pm 21.1 18.7 8.7 45 6.6 W 11 20 6 11 1020.9 1020.6 0.0
26/12:30pm 19.9 17.6 7.6 45 6.4 S 9 22 5 12 1021.1 1020.8 0.0
26/12:00pm 18.9 16.4 8.0 49 5.6 ESE 11 19 6 10 1021.4 1021.1 0.0
26/11:30am 17.8 15.4 7.0 49 5.5 ESE 9 17 5 9 1021.3 1021.0 0.0
26/11:00am 16.7 13.9 6.8 52 4.9 SSW 11 22 6 12 1021.4 1021.1 0.0
26/10:30am 16.9 13.8 7.3 53 4.8 S 13 20 7 11 1021.5 1021.2 0.0
26/10:00am 15.6 12.3 6.6 55 4.4 SSW 13 20 7 11 1021.5 1021.2 0.0
26/09:30am 15.1 13.1 7.2 59 3.9 SW 7 19 4 10 1021.7 1021.4 0.0
26/09:00am 13.9 11.5 7.0 63 3.4 S 9 15 5 8 1021.6 1021.3 0.0
26/08:30am 13.0 9.8 6.8 66 3.0 SSE 13 17 7 9 1021.5 1021.2 0.0
26/08:00am 12.1 9.7 6.8 70 2.6 S 9 15 5 8 1021.3 1021.0 0.0
26/07:30am 10.6 10.1 7.7 82 1.4 CALM 0 0 0 0 1021.3 1021.0 0.0
26/07:00am 8.6 8.0 7.2 91 0.7 CALM 0 0 0 0 1020.9 1020.6 0.0
26/06:30am 6.9 5.9 5.7 92 0.5 CALM 0 6 0 3 1020.7 1020.4 0.0
26/06:00am 7.3 6.3 5.6 89 0.8 CALM 0 4 0 2 1020.4 1020.0 0.0
26/05:30am 8.5 7.7 6.5 87 0.9 CALM 0 0 0 0 1020.1 1019.7 0.0
26/05:00am 8.8 6.6 6.4 85 1.1 S 7 11 4 6 1020.0 1019.6 0.0
26/04:30am 9.1 6.6 6.5 84 1.2 S 9 13 5 7 1019.9 1019.5 0.0
26/04:00am 9.4 7.3 6.7 83 1.3 S 7 9 4 5 1020.0 1019.6 0.0
26/03:30am 9.3 7.4 6.9 85 1.1 S 6 7 3 4 1020.0 1019.6 0.0
26/03:00am 10.1 9.5 7.2 82 1.4 CALM 0 2 0 1 1020.1 1019.7 0.0
26/02:30am 10.3 8.5 7.0 80 1.6 S 6 7 3 4 1020.1 1019.7 0.0
26/02:00am 10.1 7.7 7.0 81 1.5 SSE 9 13 5 7 1020.3 1019.9 0.0
26/01:30am 11.2 8.9 7.3 77 1.9 S 9 11 5 6 1020.6 1020.3 0.0
26/01:00am 12.1 8.3 7.4 73 2.3 S 17 24 9 13 1020.7 1020.4 0.0
26/12:30am 12.6 8.8 7.5 71 2.5 S 17 26 9 14 1020.8 1020.5 0.0
26/12:00am 13.5 9.3 7.5 67 3.0 S 19 24 10 13 1020.7 1020.4 0.0
 
Date/Time
EDT
Temp
°C
App
Temp
°C
Dew
Point
Rel
Hum
%
Delta-T
°C
Wind Press
QNH
hPa
Press
MSL
hPa
Rain
since 9 am
mm
Dir
 
Spd
km/h
Gust
km/h
Spd
kts
Gust
kts
25/11:30pm 14.0 10.0 6.6 61 3.6 S 17 22 9 12 1020.6 1020.3 0.0
25/11:00pm 14.9 11.5 5.7 54 4.4 S 13 20 7 11 1020.5 1020.2 0.0
25/10:30pm 14.7 11.9 5.2 53 4.5 S 9 11 5 6 1020.4 1020.0 0.0
25/10:00pm 14.9 12.2 5.7 54 4.4 S 9 11 5 6 1020.2 1019.8 0.0
25/09:30pm 16.5 13.0 5.5 48 5.3 S 13 19 7 10 1019.8 1019.4 0.0
25/09:00pm 17.2 13.7 5.5 46 5.7 S 13 19 7 10 1019.4 1019.0 0.0
25/08:30pm 18.0 15.1 4.9 42 6.4 SSW 9 13 5 7 1019.2 1018.8 0.0
25/08:00pm 19.4 16.1 4.7 38 7.2 SSW 11 17 6 9 1019.0 1018.6 0.0
25/07:30pm 21.0 17.4 5.0 35 7.9 SW 13 20 7 11 1018.7 1018.3 0.0
25/07:00pm 21.6 16.7 4.2 32 8.5 WSW 19 26 10 14 1018.3 1017.9 0.0
25/06:30pm 21.5 18.4 3.7 31 8.6 SW 9 19 5 10 1018.1 1017.7 0.0
25/06:00pm 21.0 15.5 4.1 33 8.2 WSW 22 30 12 16 1018.0 1017.6 0.0
25/05:30pm 21.0 16.0 4.6 34 8.1 SW 20 26 11 14 1018.1 1017.7 0.0
25/05:00pm 21.6 18.2 4.2 32 8.5 W 11 24 6 13 1018.1 1017.7 0.0
25/04:30pm 22.3 18.3 4.8 32 8.7 W 15 24 8 13 1018.2 1017.8 0.0
25/04:00pm 21.6 16.7 4.2 32 8.5 WSW 19 30 10 16 1018.4 1018.0 0.0
25/03:30pm 22.0 17.1 5.0 33 8.5 WSW 20 32 11 17 1018.5 1018.1 0.0
25/03:00pm 21.8 16.6 5.3 34 8.3 SSW 22 32 12 17 1018.7 1018.3 0.0
25/02:30pm 21.0 16.0 4.6 34 8.1 WNW 20 30 11 16 1018.9 1018.5 0.0
25/02:00pm 20.6 14.8 4.6 35 7.8 W 24 35 13 19 1019.1 1018.7 0.0
25/01:30pm 20.1 15.7 5.0 37 7.4 WSW 17 26 9 14 1019.2 1018.8 0.0
25/01:00pm 19.1 14.5 5.6 41 6.7 WSW 19 33 10 18 1019.3 1018.9 0.0
25/12:30pm 18.2 14.7 5.4 43 6.3 WNW 13 19 7 10 1019.5 1019.1 0.0
25/12:00pm 18.0 13.8 5.9 45 6.0 SW 17 24 9 13 1019.6 1019.2 0.0
25/11:30am 17.6 13.1 6.8 49 5.4 SW 20 33 11 18 1019.6 1019.2 0.0
25/11:00am 17.0 11.5 5.9 48 5.4 SSW 24 39 13 21 1019.6 1019.2 0.0
25/10:30am 15.8 11.3 6.0 52 4.8 SSW 19 26 10 14 1019.6 1019.2 0.0
25/10:00am 15.3 10.3 6.3 55 4.4 WSW 22 32 12 17 1019.8 1019.4 0.0
25/09:30am 14.8 9.2 7.1 60 3.8 SW 26 35 14 19 1019.8 1019.4 0.0
25/09:00am 14.0 8.6 6.4 60 3.7 WSW 24 39 13 21 1019.8 1019.4 9.6
25/08:30am 13.2 8.9 7.2 67 2.9 SW 19 24 10 13 1019.4 1019.0 9.6
25/08:00am 12.2 8.3 6.9 70 2.6 WSW 17 22 9 12 1019.3 1018.9 9.6
25/07:30am 11.3 8.3 6.0 70 2.5 WSW 11 17 6 9 1018.7 1018.3 9.6
25/07:00am 10.5 7.5 5.9 73 2.1 W 11 15 6 8 1018.2 1017.8 9.6
25/06:30am 9.0 7.3 5.9 81 1.4 WNW 4 11 2 6 1017.6 1017.2 9.6
25/06:00am 8.2 6.0 5.3 82 1.3 SW 6 9 3 5 1016.7 1016.4 9.6
25/05:30am 8.5 6.6 4.9 78 1.6 SSW 4 9 2 5 1016.5 1016.2 9.6
25/05:00am 9.6 7.2 5.2 74 2.0 SW 7 13 4 7 1016.3 1015.9 9.6
25/04:30am 10.5 7.0 5.5 71 2.3 WSW 13 19 7 10 1016.0 1015.6 9.6
25/04:00am 10.4 5.8 5.6 72 2.2 WSW 19 28 10 15 1015.8 1015.4 9.6
25/03:30am 10.6 5.5 5.8 72 2.2 WSW 22 32 12 17 1015.5 1015.1 9.6
25/03:00am 10.6 6.5 6.0 73 2.2 WSW 17 26 9 14 1015.7 1015.3 9.6
25/02:30am 11.0 6.9 6.0 71 2.4 WSW 17 20 9 11 1015.8 1015.4 9.6
25/02:00am 11.1 6.9 5.8 70 2.5 SW 17 22 9 12 1015.6 1015.2 9.6
25/01:30am 11.0 6.9 6.4 73 2.2 SW 17 26 9 14 1015.5 1015.1 9.6
25/01:00am 11.6 7.9 6.5 71 2.4 SW 15 20 8 11 1015.4 1015.0 9.6
25/12:30am 11.8 7.8 6.7 71 2.5 SW 17 28 9 15 1015.2 1014.8 9.6
25/12:00am 11.9 7.8 7.8 76 2.0 SW 19 32 10 17 1014.8 1014.4 9.6
 
Date/Time
EDT
Temp
°C
App
Temp
°C
Dew
Point
Rel
Hum
%
Delta-T
°C
Wind Press
QNH
hPa
Press
MSL
hPa
Rain
since 9 am
mm
Dir
 
Spd
km/h
Gust
km/h
Spd
kts
Gust
kts
24/11:30pm 12.1 9.8 8.9 81 1.6 SSW 11 15 6 8 1014.6 1014.2 9.6
24/11:00pm 12.3 9.2 9.0 80 1.7 SSW 15 20 8 11 1014.3 1013.9 9.6
24/10:30pm 12.8 9.8 9.3 79 1.8 SSW 15 24 8 13 1013.9 1013.5 9.6
24/10:00pm 12.9 9.5 9.2 78 1.9 SSW 17 26 9 14 1013.6 1013.2 9.6
24/09:30pm 13.1 10.5 9.2 77 2.0 SSW 13 28 7 15 1013.1 1012.7 9.6
24/09:00pm 13.5 10.9 9.2 75 2.2 SSW 13 26 7 14 1012.7 1012.3 9.6
24/08:30pm 13.9 10.0 9.5 75 2.3 SSW 20 33 11 18 1012.4 1012.0 9.6
24/08:00pm 14.6 9.7 10.0 74 2.4 SSW 26 43 14 23 1011.4 1011.0 9.6
24/07:30pm 15.2 10.5 10.8 75 2.4 SSW 26 43 14 23 1010.4 1010.0 9.6
24/07:04pm 16.8 11.2 12.1 74 2.6 SW 33 52 18 28 1009.2 1008.8 9.6
24/07:00pm 17.6 11.9 12.9 74 2.7 SW 35 46 19 25 1009.0 1008.6 9.6
24/06:30pm 20.6 17.8 13.3 63 4.2 SSW 20 32 11 17 1008.0 1007.5 9.6
24/06:00pm 19.8 16.4 12.6 63 4.1 SW 22 37 12 20 1007.5 1007.0 9.6
24/05:30pm 19.5 15.7 14.7 74 2.8 SSW 28 39 15 21 1006.4 1006.0 9.6
24/05:00pm 20.7 18.7 16.5 77 2.6 SW 22 33 12 18 1005.7 1005.3 9.6
24/04:30pm 20.7 20.2 17.7 83 1.9 SW 17 26 9 14 1005.9 1005.5 9.6

Other Formats:

Comma delimited format used in spreadsheet applications
http://www.bom.gov.au/fwo/IDV60801/IDV60801.94855.axf

JavaScript Object Notation format (JSON) in row-major order
http://www.bom.gov.au/fwo/IDV60801/IDV60801.94855.json